createdAt,value
2018-11-26T13:57:27.095Z,96.60
2018-11-26T14:00:02.177Z,97.00
2018-11-26T14:02:35.829Z,97.20
2018-11-26T14:05:14.189Z,97.30
2018-11-26T14:07:51.058Z,97.40
2018-11-26T14:10:28.504Z,97.50
2018-11-26T14:13:21.341Z,97.50
2018-11-26T14:15:55.361Z,97.50
2018-11-26T14:18:33.919Z,97.30
2018-11-26T14:21:07.727Z,97.40
2018-11-26T14:23:42.501Z,97.40
2018-11-26T14:26:22.501Z,97.40
2018-11-26T14:28:59.094Z,97.50
2018-11-26T14:31:39.000Z,97.50
2018-11-26T14:34:15.854Z,97.50
2018-11-26T14:36:52.384Z,97.50
2018-11-26T14:39:30.337Z,97.40
2018-11-26T14:42:07.984Z,97.50
2018-11-26T14:47:36.633Z,97.50
2018-11-26T14:50:15.352Z,97.60
2018-11-26T14:52:52.117Z,97.60
2018-11-26T14:55:30.540Z,97.60
2018-11-26T14:58:04.534Z,97.60
2018-11-26T15:00:40.878Z,97.70
2018-11-26T15:03:18.611Z,97.70
2018-11-26T15:05:57.616Z,97.70
2018-11-26T15:08:30.951Z,97.80
2018-11-26T15:11:08.394Z,98.20
2018-11-26T15:13:45.888Z,98.00
2018-11-26T15:16:20.335Z,98.00
2018-11-26T15:18:54.534Z,98.10
2018-11-26T15:21:31.550Z,97.90
2018-11-26T15:24:09.171Z,98.10
2018-11-26T15:26:46.796Z,98.30
2018-11-26T15:29:23.408Z,98.30
2018-11-26T15:32:00.793Z,98.10
2018-11-26T15:34:38.705Z,98.10
2018-11-26T15:37:16.401Z,98.20
2018-11-26T15:39:53.108Z,98.20
2018-11-26T15:42:29.695Z,98.20
2018-11-26T15:45:03.616Z,98.30
2018-11-26T15:47:42.388Z,98.40
2018-11-26T15:50:20.234Z,98.50
2018-11-26T15:52:56.540Z,98.40
2018-11-26T15:55:34.686Z,98.40
2018-11-26T15:58:11.318Z,98.50
2018-11-26T16:00:48.231Z,98.50
2018-11-26T16:03:25.799Z,98.60
2018-11-26T16:06:01.958Z,98.70
2018-11-26T16:08:35.860Z,98.70
2018-11-26T16:11:11.373Z,98.70
2018-11-26T16:13:45.751Z,98.70
2018-11-26T16:16:21.980Z,98.90
2018-11-26T16:18:59.100Z,99.00
2018-11-26T16:21:34.702Z,99.00
2018-11-26T16:24:08.895Z,99.10
2018-11-26T16:26:45.648Z,99.10
2018-11-26T16:29:23.204Z,99.10
2018-11-26T16:32:00.904Z,99.20
2018-11-26T16:34:37.657Z,99.30
2018-11-26T16:37:12.987Z,99.40
2018-11-26T16:39:47.691Z,99.50
2018-11-26T16:42:24.580Z,99.60
2018-11-26T16:44:58.807Z,99.60
2018-11-26T16:47:32.327Z,99.70
